Paolo Conte

Olheiro - Inter
4 Jun 2028
Domingo
Processo

Personalidade

Adaptabilidade (9) Ambição (2) Controvérsia (15) Lealdade (3) Pressão (1) Profissionalismo (10) Espírito Esportivo (14) Temperamento (2)

Perfil

Estilo de Treinamento Democrático
Licença Continental B
Determinação 11
Gestão de Pessoas 8
Motivação 12
Disciplina 10
Satisfação no Trabalho
65%
Fadiga
0%
Função Olheiro
Salário 20.9K p/s
Contrato 14.03.2030

Desempenho

Comportamento Bom
Eficácia do Treinamento
35%
Desenvolvimento do Jogador
30%
Prevenção de Lesões
55%
Implementação Tática
45%

Eventos Recentes

Avaliou um jogador agora
Avaliou um jogador agora
Apresentou um dossiê à direção agora
Avaliou um jogador agora
Avaliou um jogador agora

Monitorando agora

92
Jogador Clube Status Habilidade Confiança Observado Última observação Último voto
Kevin Schade Brentford Ativo 157 / 148 40% 1 02.06.2028 -
Endrick Real Madrid Ativo 154 / 150 40% 1 02.06.2028 -
Georges Mikautadze Real Madrid Ativo 156 / 147 40% 1 02.06.2028 -
Vinícius Lira Porto Ativo 125 / 135 40% 1 02.06.2028 -
Pedro Lima Tranmere Rovers Ativo 122 / 126 40% 1 02.06.2028 -
Veljko Milosavljević Milton Keynes Dons Ativo 144 / 148 40% 1 02.06.2028 -
Lorenzo Colombo Genoa Relatório pronto 142 / 138 90% 1 01.06.2028 -
Savinho Tottenham Ativo 163 / 166 40% 1 01.06.2028 -
Shea Charles Southampton Ativo 148 / 138 40% 1 01.06.2028 -
Lewis Miley Leicester City Ativo 151 / 152 40% 1 01.06.2028 -
Marcel Łubik FC Augsburg Negociando 134 / 146 40% 1 01.06.2028 -
Edoardo Motta Lazio Ativo 136 / 133 40% 1 01.06.2028 -
Mike Penders Chelsea Ativo 148 / 160 40% 1 01.06.2028 -
Rasmus Højlund Napoli Ativo 158 / 149 40% 16 31.01.2028 -
Charles De Ketelaere Atalanta Ativo 160 / 159 40% 12 31.01.2028 -
Moise Kean Fiorentina Ativo 156 / 159 40% 4 31.01.2028 -
Santiago Castro AS Roma Ativo 152 / 141 40% 17 30.01.2028 -
Assane Diao Como Ativo 152 / 144 40% 4 30.01.2028 -
Giacomo Raspadori Atalanta Ativo 151 / 155 40% 6 28.01.2028 -
Izan Merino Málaga Ativo 129 / 138 40% 2 25.01.2028 -
Ezra Mayers West Ham United Ativo 124 / 137 40% 1 25.01.2028 -
Melker Ellborg Sunderland Ativo 131 / 142 40% 1 17.01.2028 -
Lois Mignolet Racing Genk Ativo 147 / 139 40% 1 17.01.2028 -
Kauã Santos Eintracht Frankfurt Ativo 152 / 157 40% 1 17.01.2028 -
Harry Amass Manchester United Ativo 141 / 151 40% 6 13.01.2028 -
Lennon Miller Udinese Ativo 136 / 141 40% 2 13.01.2028 -
Stephen Mfuni Manchester City Ativo 120 / 127 40% 1 13.01.2028 -
Alessandro Zanoli Udinese Ativo 133 / 127 86% 1 10.01.2028 Aprovar
Bahmed Deuff FC Metz Ativo 122 / 135 40% 2 09.01.2028 -
Josh King Chelsea Ativo 147 / 154 40% 1 06.01.2028 -
Ayden Heaven Manchester United Ativo 148 / 158 40% 1 06.01.2028 -
Niccolò Fortini Fiorentina Ativo 135 / 150 40% 3 03.01.2028 Observar
Pietro Candelari Spezia Ativo 130 / 134 86% 1 01.01.2028 Aprovar
Nicholas Bonfanti Pisa Ativo 132 / 132 42% 1 / 1m 15.12.2027 -
Emanuele Schimmenti Potenza Ativo 122 / 122 56% 2 / 2m 03.11.2027 -
Rodrigo Rêgo Brighton Ativo 128 / 131 42% 1 / 1m 03.11.2027 -
Alberto Lunghi Torres Ativo 110 / 113 42% 1 / 1m 03.11.2027 -
Michele Carboni Torres Ativo 108 / 111 30% 1 / 1m 03.11.2027 -
Andrey Santos Manchester United Ativo 143 / 147 40% 1 30.08.2027 -
Marc Casadó Barcelona Ativo 151 / 153 40% 3 28.08.2027 -
Senny Mayulu Paris Saint-Germain Ativo 149 / 157 40% 2 28.08.2027 -
Wesley AS Roma Ativo 150 / 148 40% 12 20.08.2027 -
Myles Lewis-Skelly Arsenal Ativo 154 / 170 40% 1 20.08.2027 -
Carney Chukwuemeka Borussia Dortmund Ativo 144 / 139 40% 12 18.08.2027 -
Antonio Vergara Napoli Ativo 142 / 138 40% 5 18.08.2027 -
Ilias Akhomach Villarreal Ativo 149 / 149 40% 21 16.08.2027 -
Abdelhamid Ait Boudlal Stade Rennais Ativo 122 / 125 40% 2 05.08.2027 -
Yoram Zague Paris Saint-Germain Ativo 121 / 127 40% 3 02.08.2027 -
Axel Tape Bayer Leverkusen Ativo 125 / 137 40% 5 26.07.2027 -
Vitor Reis Manchester City Ativo 133 / 143 40% 1 16.07.2027 -
Jason Onana Bayern Munich Ativo 156 / 146 40% 5 07.07.2027 -
Joel Pohjanpalo Palermo Ativo 133 / 124 83% 1 14.06.2027 Aprovar
Christian Mawissa Monaco Ativo 128 / 137 40% 2 29.01.2027 -
Honest Ahanor Fiorentina Ativo 132 / 129 40% 3 26.01.2027 -
Matvey Kislyak CSKA Moscow Ativo 134 / 129 40% 2 22.01.2027 -
Luca Lipani Udinese Ativo 124 / 114 40% 2 22.01.2027 -
Juan Rodríguez Cagliari Ativo 126 / 134 40% 1 22.01.2027 -
Christ Inao Oulaï Fiorentina Ativo 134 / 151 40% 2 20.01.2027 -
Riyad Idrissi Cagliari Ativo 125 / 134 40% 3 16.01.2027 -
Eliás Montiel Athletic Bilbao Ativo 128 / 127 40% 2 16.01.2027 -
Taras Mykhavko Dynamo Kyiv Ativo 121 / 123 40% 2 13.01.2027 -
Jan Ziółkowski AS Roma Ativo 120 / 118 40% 1 07.01.2027 -
Jacopo Murano Ativo 110 / 110 42% 1 / 1m 09.12.2026 -
Marin Šverko Venezia Ativo 130 / 130 42% 1 / 1m 09.12.2026 -
Flavio Russo Sassuolo Ativo 122 / 125 52% 1 / 1m 09.12.2026 -
Giovanni Bruzzaniti Catania Ativo 115 / 115 30% 1 / 1m 09.12.2026 -
Keita Baldé Monza Ativo 131 / 131 52% 1 / 1m 04.11.2026 -
Fabrizio Marazzotti Crotone Ativo 98 / 103 30% 1 / 1m 04.11.2026 -
Bartol Franjić Venezia Ativo 126 / 126 30% 1 / 1m 04.11.2026 -
Mattia Sala Pisa Ativo 99 / 104 52% 1 / 1m 04.11.2026 -
Simone Corazza Ascoli Ativo 110 / 110 30% 1 / 1m 04.11.2026 -
Tyler Morton Olympique Lyonnais Ativo 143 / 139 40% 2 29.08.2026 -
Yasin Ayari Brighton Ativo 141 / 145 40% 1 25.08.2026 -
Julio Enciso Ipswich Town Ativo 139 / 145 40% 1 25.08.2026 -
Youri Baas Ajax Ativo 142 / 136 40% 4 24.08.2026 -
Bradley Barcola Paris Saint-Germain Ativo 158 / 155 40% 1 24.08.2026 -
Ollie Scarles West Ham United Ativo 129 / 146 40% 1 23.08.2026 -
Givairo Read Feyenoord Ativo 140 / 135 40% 1 23.08.2026 -
Iván Fresneda Sporting CP Ativo 132 / 136 40% 1 22.08.2026 -
Stefan Bajčetić Liverpool Ativo 124 / 145 40% 2 18.08.2026 -
Maghnes Akliouche Paris Saint-Germain Ativo 143 / 146 40% 3 17.08.2026 -
Didier Muller Chamois Niortais Ativo 150 / 155 40% 3 17.08.2026 -
Victor Froholdt Porto Ativo 150 / 164 40% 2 17.08.2026 -
Heorhii Sudakov Benfica Ativo 148 / 135 40% 1 15.08.2026 -
Juan David Arizala Udinese Ativo 119 / 130 40% 1 11.08.2026 -
Hákon Arnar Haraldsson LOSC Lille Ativo 142 / 151 40% 1 10.08.2026 -
Matías Soulé AS Roma Ativo 149 / 154 40% 5 07.08.2026 -
Adrien Truffert Bournemouth Ativo 146 / 137 40% 1 07.08.2026 -
Michael Kayode Brentford Ativo 145 / 157 40% 1 06.08.2026 -
El Hadji Malick Diouf Brentford Ativo 135 / 152 40% 1 06.08.2026 -
Souza Tottenham Ativo 117 / 127 40% 1 06.08.2026 -
Alex Scott Bournemouth Ativo 144 / 142 40% 1 03.08.2026 -